sensor_id;sensor_type;location;lat;lon;timestamp;P1;durP1;ratioP1;P2;durP2;ratioP2
1404;SDS011;697;51.114;6.542;2022-11-21T00:00:28;17.23;;;3.93;;
1404;SDS011;697;51.114;6.542;2022-11-21T00:02:57;12.97;;;3.73;;
1404;SDS011;697;51.114;6.542;2022-11-21T00:05:25;18.20;;;4.73;;
1404;SDS011;697;51.114;6.542;2022-11-21T00:07:53;19.17;;;4.33;;
1404;SDS011;697;51.114;6.542;2022-11-21T00:10:20;15.13;;;3.93;;
1404;SDS011;697;51.114;6.542;2022-11-21T00:12:51;13.40;;;4.37;;
1404;SDS011;697;51.114;6.542;2022-11-21T00:15:19;16.47;;;5.10;;
1404;SDS011;697;51.114;6.542;2022-11-21T00:17:45;13.00;;;4.60;;
1404;SDS011;697;51.114;6.542;2022-11-21T00:20:14;15.50;;;4.77;;
1404;SDS011;697;51.114;6.542;2022-11-21T00:22:41;16.80;;;4.30;;
1404;SDS011;697;51.114;6.542;2022-11-21T00:25:08;18.63;;;4.83;;
1404;SDS011;697;51.114;6.542;2022-11-21T00:27:35;10.77;;;4.20;;
1404;SDS011;697;51.114;6.542;2022-11-21T00:30:02;17.27;;;4.13;;
1404;SDS011;697;51.114;6.542;2022-11-21T00:32:30;10.70;;;4.10;;
1404;SDS011;697;51.114;6.542;2022-11-21T00:34:56;17.43;;;4.40;;
1404;SDS011;697;51.114;6.542;2022-11-21T00:37:24;15.20;;;4.30;;
1404;SDS011;697;51.114;6.542;2022-11-21T00:39:51;16.20;;;5.63;;
1404;SDS011;697;51.114;6.542;2022-11-21T00:42:18;15.53;;;4.97;;
1404;SDS011;697;51.114;6.542;2022-11-21T00:44:45;13.97;;;4.10;;
1404;SDS011;697;51.114;6.542;2022-11-21T00:47:11;21.60;;;6.10;;
1404;SDS011;697;51.114;6.542;2022-11-21T00:49:38;20.33;;;4.47;;
1404;SDS011;697;51.114;6.542;2022-11-21T00:52:05;15.03;;;4.60;;
1404;SDS011;697;51.114;6.542;2022-11-21T00:54:33;13.23;;;5.00;;
1404;SDS011;697;51.114;6.542;2022-11-21T00:57:00;12.50;;;5.37;;
1404;SDS011;697;51.114;6.542;2022-11-21T00:59:26;13.10;;;4.47;;
1404;SDS011;697;51.114;6.542;2022-11-21T01:01:53;14.20;;;5.37;;
1404;SDS011;697;51.114;6.542;2022-11-21T01:04:20;13.00;;;4.20;;
1404;SDS011;697;51.114;6.542;2022-11-21T01:06:47;12.10;;;4.33;;
1404;SDS011;697;51.114;6.542;2022-11-21T01:09:14;16.77;;;4.70;;
1404;SDS011;697;51.114;6.542;2022-11-21T01:11:42;15.13;;;5.50;;
1404;SDS011;697;51.114;6.542;2022-11-21T01:14:08;18.00;;;4.47;;
1404;SDS011;697;51.114;6.542;2022-11-21T01:16:35;17.67;;;5.50;;
1404;SDS011;697;51.114;6.542;2022-11-21T01:19:02;15.53;;;4.47;;
1404;SDS011;697;51.114;6.542;2022-11-21T01:21:30;16.10;;;4.63;;
1404;SDS011;697;51.114;6.542;2022-11-21T01:23:57;17.53;;;6.03;;
1404;SDS011;697;51.114;6.542;2022-11-21T01:26:25;15.13;;;3.87;;
1404;SDS011;697;51.114;6.542;2022-11-21T01:28:55;21.43;;;4.67;;
1404;SDS011;697;51.114;6.542;2022-11-21T01:31:23;21.53;;;4.80;;
1404;SDS011;697;51.114;6.542;2022-11-21T01:33:51;12.20;;;4.77;;
1404;SDS011;697;51.114;6.542;2022-11-21T01:36:19;12.73;;;5.70;;
1404;SDS011;697;51.114;6.542;2022-11-21T01:38:47;16.43;;;4.50;;
1404;SDS011;697;51.114;6.542;2022-11-21T01:41:16;22.07;;;5.57;;
1404;SDS011;697;51.114;6.542;2022-11-21T01:43:44;17.87;;;5.13;;
1404;SDS011;697;51.114;6.542;2022-11-21T01:46:14;19.43;;;5.13;;
1404;SDS011;697;51.114;6.542;2022-11-21T01:48:43;14.07;;;4.37;;
1404;SDS011;697;51.114;6.542;2022-11-21T01:51:14;16.27;;;5.03;;
1404;SDS011;697;51.114;6.542;2022-11-21T01:53:45;10.90;;;4.40;;
1404;SDS011;697;51.114;6.542;2022-11-21T01:56:24;25.07;;;6.47;;
1404;SDS011;697;51.114;6.542;2022-11-21T01:58:51;11.30;;;3.97;;
1404;SDS011;697;51.114;6.542;2022-11-21T02:01:23;17.03;;;4.77;;
1404;SDS011;697;51.114;6.542;2022-11-21T02:03:49;13.63;;;4.47;;
1404;SDS011;697;51.114;6.542;2022-11-21T02:06:17;17.37;;;4.80;;
1404;SDS011;697;51.114;6.542;2022-11-21T02:08:44;22.13;;;5.40;;
1404;SDS011;697;51.114;6.542;2022-11-21T02:11:13;12.07;;;3.80;;
1404;SDS011;697;51.114;6.542;2022-11-21T02:13:46;10.90;;;4.50;;
1404;SDS011;697;51.114;6.542;2022-11-21T02:16:13;17.57;;;5.20;;
1404;SDS011;697;51.114;6.542;2022-11-21T02:18:41;16.03;;;4.13;;
1404;SDS011;697;51.114;6.542;2022-11-21T02:21:10;13.43;;;4.03;;
1404;SDS011;697;51.114;6.542;2022-11-21T02:23:46;10.70;;;3.90;;
1404;SDS011;697;51.114;6.542;2022-11-21T02:26:20;13.27;;;4.67;;
1404;SDS011;697;51.114;6.542;2022-11-21T02:28:47;10.60;;;4.43;;
1404;SDS011;697;51.114;6.542;2022-11-21T02:31:13;15.83;;;4.17;;
1404;SDS011;697;51.114;6.542;2022-11-21T02:33:40;13.13;;;4.27;;
1404;SDS011;697;51.114;6.542;2022-11-21T02:39:01;15.10;;;5.00;;
1404;SDS011;697;51.114;6.542;2022-11-21T02:41:31;11.67;;;3.93;;
1404;SDS011;697;51.114;6.542;2022-11-21T02:44:01;10.27;;;4.07;;
1404;SDS011;697;51.114;6.542;2022-11-21T02:46:32;12.17;;;4.13;;
1404;SDS011;697;51.114;6.542;2022-11-21T02:48:59;11.83;;;3.63;;
1404;SDS011;697;51.114;6.542;2022-11-21T02:51:31;11.57;;;4.30;;
1404;SDS011;697;51.114;6.542;2022-11-21T02:53:58;10.03;;;3.53;;
1404;SDS011;697;51.114;6.542;2022-11-21T02:56:24;10.53;;;3.50;;
1404;SDS011;697;51.114;6.542;2022-11-21T02:58:52;13.70;;;3.53;;
1404;SDS011;697;51.114;6.542;2022-11-21T03:01:22;9.90;;;4.20;;
1404;SDS011;697;51.114;6.542;2022-11-21T03:03:49;11.90;;;5.20;;
1404;SDS011;697;51.114;6.542;2022-11-21T03:06:15;11.97;;;4.10;;
1404;SDS011;697;51.114;6.542;2022-11-21T03:08:42;10.67;;;4.10;;
1404;SDS011;697;51.114;6.542;2022-11-21T03:11:09;14.40;;;3.83;;
1404;SDS011;697;51.114;6.542;2022-11-21T03:13:36;11.83;;;3.87;;
1404;SDS011;697;51.114;6.542;2022-11-21T03:16:04;8.87;;;3.80;;
1404;SDS011;697;51.114;6.542;2022-11-21T03:18:31;12.30;;;3.60;;
1404;SDS011;697;51.114;6.542;2022-11-21T03:20:57;9.07;;;3.13;;
1404;SDS011;697;51.114;6.542;2022-11-21T03:23:24;15.13;;;3.60;;
1404;SDS011;697;51.114;6.542;2022-11-21T03:25:51;16.13;;;3.70;;
1404;SDS011;697;51.114;6.542;2022-11-21T03:28:17;13.03;;;4.13;;
1404;SDS011;697;51.114;6.542;2022-11-21T03:30:44;8.33;;;3.00;;
1404;SDS011;697;51.114;6.542;2022-11-21T03:33:13;10.27;;;3.40;;
1404;SDS011;697;51.114;6.542;2022-11-21T03:35:40;9.60;;;3.07;;
1404;SDS011;697;51.114;6.542;2022-11-21T03:38:07;11.37;;;3.00;;
1404;SDS011;697;51.114;6.542;2022-11-21T03:40:34;5.70;;;2.73;;
1404;SDS011;697;51.114;6.542;2022-11-21T03:43:02;11.07;;;3.70;;
1404;SDS011;697;51.114;6.542;2022-11-21T03:45:30;8.83;;;3.17;;
1404;SDS011;697;51.114;6.542;2022-11-21T03:47:57;10.40;;;3.53;;
1404;SDS011;697;51.114;6.542;2022-11-21T03:50:25;10.73;;;3.17;;
1404;SDS011;697;51.114;6.542;2022-11-21T03:52:52;7.20;;;3.03;;
1404;SDS011;697;51.114;6.542;2022-11-21T03:55:18;6.60;;;2.70;;
1404;SDS011;697;51.114;6.542;2022-11-21T03:57:45;10.80;;;2.90;;
1404;SDS011;697;51.114;6.542;2022-11-21T04:00:13;6.10;;;2.40;;
1404;SDS011;697;51.114;6.542;2022-11-21T04:02:40;9.90;;;3.53;;
1404;SDS011;697;51.114;6.542;2022-11-21T04:05:07;12.23;;;3.87;;
1404;SDS011;697;51.114;6.542;2022-11-21T04:07:36;7.97;;;3.40;;
1404;SDS011;697;51.114;6.542;2022-11-21T04:10:02;5.73;;;2.80;;
1404;SDS011;697;51.114;6.542;2022-11-21T04:12:29;15.00;;;3.43;;
1404;SDS011;697;51.114;6.542;2022-11-21T04:14:56;12.40;;;3.97;;
1404;SDS011;697;51.114;6.542;2022-11-21T04:17:23;8.27;;;2.40;;
1404;SDS011;697;51.114;6.542;2022-11-21T04:19:49;7.43;;;2.80;;
1404;SDS011;697;51.114;6.542;2022-11-21T04:22:17;6.60;;;3.33;;
1404;SDS011;697;51.114;6.542;2022-11-21T04:24:45;7.63;;;2.57;;
1404;SDS011;697;51.114;6.542;2022-11-21T04:27:12;5.03;;;2.60;;
1404;SDS011;697;51.114;6.542;2022-11-21T04:29:38;6.70;;;2.90;;
1404;SDS011;697;51.114;6.542;2022-11-21T04:32:05;5.10;;;3.03;;
1404;SDS011;697;51.114;6.542;2022-11-21T04:34:32;10.30;;;4.60;;
1404;SDS011;697;51.114;6.542;2022-11-21T04:36:59;7.20;;;3.33;;
1404;SDS011;697;51.114;6.542;2022-11-21T04:39:25;10.53;;;4.13;;
1404;SDS011;697;51.114;6.542;2022-11-21T04:41:53;8.83;;;3.50;;
1404;SDS011;697;51.114;6.542;2022-11-21T04:44:20;6.73;;;3.80;;
1404;SDS011;697;51.114;6.542;2022-11-21T04:46:47;5.73;;;4.00;;
1404;SDS011;697;51.114;6.542;2022-11-21T04:49:13;7.10;;;3.73;;
1404;SDS011;697;51.114;6.542;2022-11-21T04:51:40;7.57;;;4.93;;
1404;SDS011;697;51.114;6.542;2022-11-21T04:54:07;7.07;;;4.60;;
1404;SDS011;697;51.114;6.542;2022-11-21T04:56:34;6.50;;;4.40;;
1404;SDS011;697;51.114;6.542;2022-11-21T04:59:03;10.47;;;4.00;;
1404;SDS011;697;51.114;6.542;2022-11-21T05:01:30;15.07;;;5.60;;
1404;SDS011;697;51.114;6.542;2022-11-21T05:03:56;10.60;;;5.30;;
1404;SDS011;697;51.114;6.542;2022-11-21T05:06:23;7.87;;;5.57;;
1404;SDS011;697;51.114;6.542;2022-11-21T05:08:50;12.10;;;6.13;;
1404;SDS011;697;51.114;6.542;2022-11-21T05:11:17;8.87;;;5.90;;
1404;SDS011;697;51.114;6.542;2022-11-21T05:14:01;10.60;;;6.57;;
1404;SDS011;697;51.114;6.542;2022-11-21T05:16:29;12.43;;;6.87;;
1404;SDS011;697;51.114;6.542;2022-11-21T05:18:57;14.97;;;7.70;;
1404;SDS011;697;51.114;6.542;2022-11-21T05:21:24;12.03;;;7.20;;
1404;SDS011;697;51.114;6.542;2022-11-21T05:23:50;10.93;;;7.00;;
1404;SDS011;697;51.114;6.542;2022-11-21T05:26:18;15.30;;;7.97;;
1404;SDS011;697;51.114;6.542;2022-11-21T05:28:45;11.80;;;8.40;;
1404;SDS011;697;51.114;6.542;2022-11-21T05:31:12;15.20;;;9.07;;
1404;SDS011;697;51.114;6.542;2022-11-21T05:33:40;16.77;;;9.13;;
1404;SDS011;697;51.114;6.542;2022-11-21T05:36:07;12.43;;;9.77;;
1404;SDS011;697;51.114;6.542;2022-11-21T05:38:34;13.43;;;9.23;;
1404;SDS011;697;51.114;6.542;2022-11-21T05:41:00;13.37;;;10.30;;
1404;SDS011;697;51.114;6.542;2022-11-21T05:43:27;18.90;;;12.43;;
1404;SDS011;697;51.114;6.542;2022-11-21T05:46:11;15.63;;;11.13;;
1404;SDS011;697;51.114;6.542;2022-11-21T05:48:38;15.00;;;10.40;;
1404;SDS011;697;51.114;6.542;2022-11-21T05:51:06;16.87;;;11.23;;
1404;SDS011;697;51.114;6.542;2022-11-21T05:53:33;19.20;;;12.00;;
1404;SDS011;697;51.114;6.542;2022-11-21T05:56:02;16.47;;;11.80;;
1404;SDS011;697;51.114;6.542;2022-11-21T05:58:30;21.70;;;13.37;;
1404;SDS011;697;51.114;6.542;2022-11-21T06:00:57;14.53;;;12.27;;
1404;SDS011;697;51.114;6.542;2022-11-21T06:03:24;15.23;;;13.43;;
1404;SDS011;697;51.114;6.542;2022-11-21T06:05:58;17.40;;;12.97;;
1404;SDS011;697;51.114;6.542;2022-11-21T06:08:27;19.30;;;13.50;;
1404;SDS011;697;51.114;6.542;2022-11-21T06:10:56;15.40;;;12.00;;
1404;SDS011;697;51.114;6.542;2022-11-21T06:13:23;16.80;;;12.20;;
1404;SDS011;697;51.114;6.542;2022-11-21T06:15:50;16.90;;;11.00;;
1404;SDS011;697;51.114;6.542;2022-11-21T06:18:18;13.23;;;10.60;;
1404;SDS011;697;51.114;6.542;2022-11-21T06:20:46;14.90;;;9.87;;
1404;SDS011;697;51.114;6.542;2022-11-21T06:23:12;13.13;;;9.20;;
1404;SDS011;697;51.114;6.542;2022-11-21T06:25:41;11.53;;;8.97;;
1404;SDS011;697;51.114;6.542;2022-11-21T06:28:08;15.07;;;9.10;;
1404;SDS011;697;51.114;6.542;2022-11-21T06:30:35;18.67;;;11.07;;
1404;SDS011;697;51.114;6.542;2022-11-21T06:33:02;15.63;;;10.10;;
1404;SDS011;697;51.114;6.542;2022-11-21T06:35:30;11.20;;;8.90;;
1404;SDS011;697;51.114;6.542;2022-11-21T06:37:57;12.80;;;10.43;;
1404;SDS011;697;51.114;6.542;2022-11-21T06:40:23;10.53;;;9.03;;
1404;SDS011;697;51.114;6.542;2022-11-21T06:42:51;13.23;;;9.30;;
1404;SDS011;697;51.114;6.542;2022-11-21T06:45:18;12.17;;;8.47;;
1404;SDS011;697;51.114;6.542;2022-11-21T06:47:45;10.30;;;8.03;;
1404;SDS011;697;51.114;6.542;2022-11-21T06:50:12;11.30;;;7.93;;
1404;SDS011;697;51.114;6.542;2022-11-21T06:52:39;12.70;;;8.70;;
1404;SDS011;697;51.114;6.542;2022-11-21T06:55:06;12.50;;;9.17;;
1404;SDS011;697;51.114;6.542;2022-11-21T06:57:33;12.23;;;8.63;;
1404;SDS011;697;51.114;6.542;2022-11-21T07:00:02;13.30;;;8.83;;
1404;SDS011;697;51.114;6.542;2022-11-21T07:02:30;12.90;;;7.87;;
1404;SDS011;697;51.114;6.542;2022-11-21T07:04:56;12.80;;;7.63;;
1404;SDS011;697;51.114;6.542;2022-11-21T07:07:23;9.47;;;6.80;;
1404;SDS011;697;51.114;6.542;2022-11-21T07:09:50;13.77;;;7.43;;
1404;SDS011;697;51.114;6.542;2022-11-21T07:12:17;7.83;;;6.53;;
1404;SDS011;697;51.114;6.542;2022-11-21T07:15:03;11.57;;;7.23;;
1404;SDS011;697;51.114;6.542;2022-11-21T07:17:31;12.27;;;6.73;;
1404;SDS011;697;51.114;6.542;2022-11-21T07:19:58;12.80;;;7.47;;
1404;SDS011;697;51.114;6.542;2022-11-21T07:22:24;13.37;;;6.67;;
1404;SDS011;697;51.114;6.542;2022-11-21T07:24:51;12.60;;;6.87;;
1404;SDS011;697;51.114;6.542;2022-11-21T07:27:18;9.87;;;7.03;;
1404;SDS011;697;51.114;6.542;2022-11-21T07:29:44;8.90;;;6.67;;
1404;SDS011;697;51.114;6.542;2022-11-21T07:32:12;12.70;;;6.97;;
1404;SDS011;697;51.114;6.542;2022-11-21T07:34:39;7.60;;;6.30;;
1404;SDS011;697;51.114;6.542;2022-11-21T07:37:06;7.13;;;6.13;;
1404;SDS011;697;51.114;6.542;2022-11-21T07:39:33;7.73;;;6.00;;
1404;SDS011;697;51.114;6.542;2022-11-21T07:41:59;9.50;;;6.30;;
1404;SDS011;697;51.114;6.542;2022-11-21T07:44:26;9.13;;;7.60;;
1404;SDS011;697;51.114;6.542;2022-11-21T07:46:53;9.53;;;6.10;;
1404;SDS011;697;51.114;6.542;2022-11-21T07:49:21;8.33;;;7.00;;
1404;SDS011;697;51.114;6.542;2022-11-21T07:51:48;14.00;;;8.47;;
1404;SDS011;697;51.114;6.542;2022-11-21T07:54:15;16.97;;;8.27;;
1404;SDS011;697;51.114;6.542;2022-11-21T07:56:42;7.83;;;7.00;;
1404;SDS011;697;51.114;6.542;2022-11-21T07:59:08;12.80;;;6.83;;
1404;SDS011;697;51.114;6.542;2022-11-21T08:01:35;8.23;;;6.80;;
1404;SDS011;697;51.114;6.542;2022-11-21T08:04:02;9.30;;;6.80;;
1404;SDS011;697;51.114;6.542;2022-11-21T08:06:30;8.07;;;6.43;;
1404;SDS011;697;51.114;6.542;2022-11-21T08:08:57;10.83;;;6.90;;
1404;SDS011;697;51.114;6.542;2022-11-21T08:11:24;8.03;;;6.77;;
1404;SDS011;697;51.114;6.542;2022-11-21T08:13:50;8.23;;;7.43;;
1404;SDS011;697;51.114;6.542;2022-11-21T08:16:17;8.83;;;7.63;;
1404;SDS011;697;51.114;6.542;2022-11-21T08:18:44;11.80;;;8.83;;
1404;SDS011;697;51.114;6.542;2022-11-21T08:21:11;11.83;;;8.43;;
1404;SDS011;697;51.114;6.542;2022-11-21T08:23:39;10.30;;;7.67;;
1404;SDS011;697;51.114;6.542;2022-11-21T08:26:07;14.00;;;8.07;;
1404;SDS011;697;51.114;6.542;2022-11-21T08:28:34;11.00;;;8.07;;
1404;SDS011;697;51.114;6.542;2022-11-21T08:31:02;12.47;;;8.40;;
1404;SDS011;697;51.114;6.542;2022-11-21T08:33:29;17.80;;;9.70;;
1404;SDS011;697;51.114;6.542;2022-11-21T08:35:56;14.43;;;9.93;;
1404;SDS011;697;51.114;6.542;2022-11-21T08:38:23;15.00;;;8.97;;
1404;SDS011;697;51.114;6.542;2022-11-21T08:40:51;13.50;;;8.90;;
1404;SDS011;697;51.114;6.542;2022-11-21T08:43:32;11.83;;;8.43;;
1404;SDS011;697;51.114;6.542;2022-11-21T08:45:59;16.20;;;9.60;;
1404;SDS011;697;51.114;6.542;2022-11-21T08:48:25;12.13;;;8.27;;
1404;SDS011;697;51.114;6.542;2022-11-21T08:50:52;12.17;;;9.00;;
1404;SDS011;697;51.114;6.542;2022-11-21T08:53:21;15.50;;;8.40;;
1404;SDS011;697;51.114;6.542;2022-11-21T08:55:48;16.73;;;8.07;;
1404;SDS011;697;51.114;6.542;2022-11-21T08:58:16;15.00;;;7.97;;
1404;SDS011;697;51.114;6.542;2022-11-21T09:00:43;11.70;;;8.60;;
1404;SDS011;697;51.114;6.542;2022-11-21T09:03:10;16.83;;;7.90;;
1404;SDS011;697;51.114;6.542;2022-11-21T09:05:36;15.90;;;8.40;;
1404;SDS011;697;51.114;6.542;2022-11-21T09:08:03;15.67;;;8.23;;
1404;SDS011;697;51.114;6.542;2022-11-21T09:10:30;16.10;;;7.07;;
1404;SDS011;697;51.114;6.542;2022-11-21T09:12:57;10.70;;;7.10;;
1404;SDS011;697;51.114;6.542;2022-11-21T09:15:25;14.10;;;7.90;;
1404;SDS011;697;51.114;6.542;2022-11-21T09:18:21;15.57;;;7.30;;
1404;SDS011;697;51.114;6.542;2022-11-21T09:20:47;10.97;;;7.60;;
1404;SDS011;697;51.114;6.542;2022-11-21T09:23:15;12.23;;;7.67;;
1404;SDS011;697;51.114;6.542;2022-11-21T09:25:42;8.90;;;7.47;;
1404;SDS011;697;51.114;6.542;2022-11-21T09:28:10;11.50;;;6.77;;
1404;SDS011;697;51.114;6.542;2022-11-21T09:30:39;12.73;;;7.73;;
1404;SDS011;697;51.114;6.542;2022-11-21T09:33:09;14.07;;;7.20;;
1404;SDS011;697;51.114;6.542;2022-11-21T09:35:36;13.03;;;6.70;;
1404;SDS011;697;51.114;6.542;2022-11-21T09:38:03;9.47;;;6.30;;
1404;SDS011;697;51.114;6.542;2022-11-21T09:40:31;11.33;;;6.30;;
1404;SDS011;697;51.114;6.542;2022-11-21T09:43:01;10.97;;;5.73;;
1404;SDS011;697;51.114;6.542;2022-11-21T09:45:38;11.00;;;6.40;;
1404;SDS011;697;51.114;6.542;2022-11-21T09:48:11;10.17;;;6.40;;
1404;SDS011;697;51.114;6.542;2022-11-21T09:50:43;14.03;;;6.33;;
1404;SDS011;697;51.114;6.542;2022-11-21T09:53:14;8.43;;;4.80;;
1404;SDS011;697;51.114;6.542;2022-11-21T09:55:44;9.50;;;6.13;;
1404;SDS011;697;51.114;6.542;2022-11-21T09:58:19;13.40;;;4.93;;
1404;SDS011;697;51.114;6.542;2022-11-21T10:00:51;8.50;;;6.17;;
1404;SDS011;697;51.114;6.542;2022-11-21T10:03:19;9.70;;;5.33;;
1404;SDS011;697;51.114;6.542;2022-11-21T10:05:50;7.70;;;4.37;;
1404;SDS011;697;51.114;6.542;2022-11-21T10:08:22;9.63;;;5.70;;
1404;SDS011;697;51.114;6.542;2022-11-21T10:10:59;13.67;;;4.60;;
1404;SDS011;697;51.114;6.542;2022-11-21T10:13:41;8.07;;;3.77;;
1404;SDS011;697;51.114;6.542;2022-11-21T10:16:17;11.23;;;3.70;;
1404;SDS011;697;51.114;6.542;2022-11-21T10:18:54;12.53;;;4.47;;
1404;SDS011;697;51.114;6.542;2022-11-21T10:24:31;8.00;;;3.77;;
1404;SDS011;697;51.114;6.542;2022-11-21T10:27:05;6.93;;;3.50;;
1404;SDS011;697;51.114;6.542;2022-11-21T10:29:39;12.07;;;3.73;;
1404;SDS011;697;51.114;6.542;2022-11-21T10:32:15;8.10;;;3.33;;
1404;SDS011;697;51.114;6.542;2022-11-21T10:34:47;3.40;;;2.57;;
1404;SDS011;697;51.114;6.542;2022-11-21T10:37:19;6.37;;;3.07;;
1404;SDS011;697;51.114;6.542;2022-11-21T10:39:56;7.67;;;3.17;;
1404;SDS011;697;51.114;6.542;2022-11-21T10:42:31;4.33;;;2.80;;
1404;SDS011;697;51.114;6.542;2022-11-21T10:45:01;7.57;;;2.80;;
1404;SDS011;697;51.114;6.542;2022-11-21T10:47:42;7.17;;;3.00;;
1404;SDS011;697;51.114;6.542;2022-11-21T10:50:13;5.47;;;3.67;;
1404;SDS011;697;51.114;6.542;2022-11-21T10:52:57;8.30;;;3.90;;
1404;SDS011;697;51.114;6.542;2022-11-21T10:55:56;5.47;;;3.30;;
1404;SDS011;697;51.114;6.542;2022-11-21T10:58:32;9.77;;;3.50;;
1404;SDS011;697;51.114;6.542;2022-11-21T11:01:01;5.20;;;2.93;;
1404;SDS011;697;51.114;6.542;2022-11-21T11:03:29;4.93;;;2.63;;
1404;SDS011;697;51.114;6.542;2022-11-21T11:05:57;5.33;;;2.73;;
1404;SDS011;697;51.114;6.542;2022-11-21T11:08:24;7.67;;;3.17;;
1404;SDS011;697;51.114;6.542;2022-11-21T11:11:03;4.70;;;1.90;;
1404;SDS011;697;51.114;6.542;2022-11-21T11:13:32;6.47;;;2.20;;
1404;SDS011;697;51.114;6.542;2022-11-21T11:16:14;6.13;;;2.47;;
1404;SDS011;697;51.114;6.542;2022-11-21T11:18:46;8.10;;;2.83;;
1404;SDS011;697;51.114;6.542;2022-11-21T11:21:20;7.87;;;2.23;;
1404;SDS011;697;51.114;6.542;2022-11-21T11:23:49;5.77;;;2.00;;
1404;SDS011;697;51.114;6.542;2022-11-21T11:26:19;5.23;;;2.00;;
1404;SDS011;697;51.114;6.542;2022-11-21T11:28:48;3.20;;;1.57;;
1404;SDS011;697;51.114;6.542;2022-11-21T11:31:15;5.13;;;2.23;;
1404;SDS011;697;51.114;6.542;2022-11-21T11:33:49;6.20;;;2.30;;
1404;SDS011;697;51.114;6.542;2022-11-21T11:36:22;5.87;;;2.40;;
1404;SDS011;697;51.114;6.542;2022-11-21T11:39:06;4.13;;;1.60;;
1404;SDS011;697;51.114;6.542;2022-11-21T11:45:21;9.40;;;1.87;;
1404;SDS011;697;51.114;6.542;2022-11-21T11:48:15;3.80;;;1.57;;
1404;SDS011;697;51.114;6.542;2022-11-21T11:50:45;7.90;;;2.20;;
1404;SDS011;697;51.114;6.542;2022-11-21T11:53:16;3.30;;;2.10;;
1404;SDS011;697;51.114;6.542;2022-11-21T11:55:46;5.17;;;2.07;;
1404;SDS011;697;51.114;6.542;2022-11-21T11:58:19;3.67;;;1.63;;
1404;SDS011;697;51.114;6.542;2022-11-21T12:00:52;6.13;;;2.57;;
1404;SDS011;697;51.114;6.542;2022-11-21T12:03:25;4.07;;;2.33;;
1404;SDS011;697;51.114;6.542;2022-11-21T12:06:02;3.60;;;1.73;;
1404;SDS011;697;51.114;6.542;2022-11-21T12:08:33;4.20;;;1.87;;
1404;SDS011;697;51.114;6.542;2022-11-21T12:11:12;4.50;;;2.10;;
1404;SDS011;697;51.114;6.542;2022-11-21T12:14:08;6.47;;;2.03;;
1404;SDS011;697;51.114;6.542;2022-11-21T12:17:01;5.47;;;1.70;;
1404;SDS011;697;51.114;6.542;2022-11-21T12:19:33;4.23;;;1.97;;
1404;SDS011;697;51.114;6.542;2022-11-21T12:22:04;10.70;;;2.40;;
1404;SDS011;697;51.114;6.542;2022-11-21T12:24:32;4.20;;;2.20;;
1404;SDS011;697;51.114;6.542;2022-11-21T12:27:02;6.33;;;2.10;;
1404;SDS011;697;51.114;6.542;2022-11-21T12:29:44;7.30;;;2.83;;
1404;SDS011;697;51.114;6.542;2022-11-21T12:32:28;3.90;;;2.00;;
1404;SDS011;697;51.114;6.542;2022-11-21T12:35:14;4.20;;;1.67;;
1404;SDS011;697;51.114;6.542;2022-11-21T12:37:54;5.77;;;2.43;;
1404;SDS011;697;51.114;6.542;2022-11-21T12:40:34;6.30;;;2.47;;
1404;SDS011;697;51.114;6.542;2022-11-21T12:43:15;7.43;;;2.40;;
1404;SDS011;697;51.114;6.542;2022-11-21T12:45:48;3.97;;;1.67;;
1404;SDS011;697;51.114;6.542;2022-11-21T12:48:23;4.40;;;1.90;;
1404;SDS011;697;51.114;6.542;2022-11-21T12:51:28;5.97;;;2.40;;
1404;SDS011;697;51.114;6.542;2022-11-21T12:54:34;4.63;;;1.80;;
1404;SDS011;697;51.114;6.542;2022-11-21T12:57:11;4.93;;;2.07;;
1404;SDS011;697;51.114;6.542;2022-11-21T13:02:19;5.37;;;1.83;;
1404;SDS011;697;51.114;6.542;2022-11-21T13:04:53;5.47;;;1.87;;
1404;SDS011;697;51.114;6.542;2022-11-21T13:07:23;7.37;;;4.20;;
1404;SDS011;697;51.114;6.542;2022-11-21T13:09:55;4.30;;;2.20;;
1404;SDS011;697;51.114;6.542;2022-11-21T13:12:25;6.87;;;1.97;;
1404;SDS011;697;51.114;6.542;2022-11-21T13:15:00;4.30;;;1.40;;
1404;SDS011;697;51.114;6.542;2022-11-21T13:17:36;3.40;;;1.50;;
1404;SDS011;697;51.114;6.542;2022-11-21T13:20:14;2.97;;;1.47;;
1404;SDS011;697;51.114;6.542;2022-11-21T13:22:47;2.77;;;1.40;;
1404;SDS011;697;51.114;6.542;2022-11-21T13:31:00;2.40;;;0.87;;
1404;SDS011;697;51.114;6.542;2022-11-21T13:33:47;3.07;;;1.10;;
1404;SDS011;697;51.114;6.542;2022-11-21T13:42:05;2.90;;;1.27;;
1404;SDS011;697;51.114;6.542;2022-11-21T13:44:53;2.60;;;1.10;;
1404;SDS011;697;51.114;6.542;2022-11-21T13:50:42;1.63;;;0.90;;
1404;SDS011;697;51.114;6.542;2022-11-21T13:56:23;4.67;;;1.37;;
1404;SDS011;697;51.114;6.542;2022-11-21T13:58:59;3.17;;;1.20;;
1404;SDS011;697;51.114;6.542;2022-11-21T14:04:32;2.87;;;1.23;;
1404;SDS011;697;51.114;6.542;2022-11-21T14:07:35;2.67;;;1.50;;
1404;SDS011;697;51.114;6.542;2022-11-21T14:10:05;2.43;;;1.63;;
1404;SDS011;697;51.114;6.542;2022-11-21T14:12:45;3.90;;;1.20;;
1404;SDS011;697;51.114;6.542;2022-11-21T14:15:18;2.30;;;0.90;;
1404;SDS011;697;51.114;6.542;2022-11-21T14:17:50;2.80;;;1.30;;
1404;SDS011;697;51.114;6.542;2022-11-21T14:20:20;2.40;;;1.13;;
1404;SDS011;697;51.114;6.542;2022-11-21T14:22:52;1.70;;;1.07;;
1404;SDS011;697;51.114;6.542;2022-11-21T14:25:22;2.13;;;1.20;;
1404;SDS011;697;51.114;6.542;2022-11-21T14:27:52;1.63;;;1.00;;
1404;SDS011;697;51.114;6.542;2022-11-21T14:30:32;1.57;;;0.80;;
1404;SDS011;697;51.114;6.542;2022-11-21T14:36:03;3.43;;;1.33;;
1404;SDS011;697;51.114;6.542;2022-11-21T14:38:33;3.93;;;1.30;;
1404;SDS011;697;51.114;6.542;2022-11-21T14:41:20;6.97;;;1.20;;
1404;SDS011;697;51.114;6.542;2022-11-21T14:44:02;4.10;;;1.50;;
1404;SDS011;697;51.114;6.542;2022-11-21T14:46:32;6.70;;;1.37;;
1404;SDS011;697;51.114;6.542;2022-11-21T14:51:47;3.43;;;1.27;;
1404;SDS011;697;51.114;6.542;2022-11-21T14:54:16;2.40;;;1.30;;
1404;SDS011;697;51.114;6.542;2022-11-21T14:56:45;4.53;;;1.77;;
1404;SDS011;697;51.114;6.542;2022-11-21T14:59:17;4.57;;;1.90;;
1404;SDS011;697;51.114;6.542;2022-11-21T15:01:54;6.80;;;1.90;;
1404;SDS011;697;51.114;6.542;2022-11-21T15:04:31;8.17;;;2.30;;
1404;SDS011;697;51.114;6.542;2022-11-21T15:06:59;3.90;;;2.03;;
1404;SDS011;697;51.114;6.542;2022-11-21T15:09:27;3.17;;;1.60;;
1404;SDS011;697;51.114;6.542;2022-11-21T15:11:57;7.63;;;3.30;;
1404;SDS011;697;51.114;6.542;2022-11-21T15:14:28;2.00;;;1.30;;
1404;SDS011;697;51.114;6.542;2022-11-21T15:17:00;4.90;;;1.37;;
1404;SDS011;697;51.114;6.542;2022-11-21T15:19:29;4.87;;;1.80;;
1404;SDS011;697;51.114;6.542;2022-11-21T15:21:57;2.40;;;1.40;;
1404;SDS011;697;51.114;6.542;2022-11-21T15:24:30;7.90;;;1.80;;
1404;SDS011;697;51.114;6.542;2022-11-21T15:30:00;6.17;;;2.10;;
1404;SDS011;697;51.114;6.542;2022-11-21T15:32:30;4.30;;;1.60;;
1404;SDS011;697;51.114;6.542;2022-11-21T15:34:56;2.80;;;1.73;;
1404;SDS011;697;51.114;6.542;2022-11-21T15:37:23;3.00;;;1.70;;
1404;SDS011;697;51.114;6.542;2022-11-21T15:39:51;4.20;;;1.70;;
1404;SDS011;697;51.114;6.542;2022-11-21T15:42:33;2.87;;;1.60;;
1404;SDS011;697;51.114;6.542;2022-11-21T15:45:03;3.70;;;2.03;;
1404;SDS011;697;51.114;6.542;2022-11-21T15:47:48;6.30;;;2.27;;
1404;SDS011;697;51.114;6.542;2022-11-21T15:50:15;2.30;;;1.77;;
1404;SDS011;697;51.114;6.542;2022-11-21T15:52:42;5.40;;;2.27;;
1404;SDS011;697;51.114;6.542;2022-11-21T15:55:10;5.27;;;2.93;;
1404;SDS011;697;51.114;6.542;2022-11-21T15:57:41;5.07;;;3.03;;
1404;SDS011;697;51.114;6.542;2022-11-21T16:00:08;4.50;;;3.30;;
1404;SDS011;697;51.114;6.542;2022-11-21T16:02:36;5.00;;;2.37;;
1404;SDS011;697;51.114;6.542;2022-11-21T16:05:04;7.60;;;2.60;;
1404;SDS011;697;51.114;6.542;2022-11-21T16:07:31;8.40;;;2.53;;
1404;SDS011;697;51.114;6.542;2022-11-21T16:09:58;4.40;;;2.40;;
1404;SDS011;697;51.114;6.542;2022-11-21T16:12:24;7.73;;;2.60;;
1404;SDS011;697;51.114;6.542;2022-11-21T16:14:51;4.40;;;2.70;;
1404;SDS011;697;51.114;6.542;2022-11-21T16:17:18;5.60;;;2.70;;
1404;SDS011;697;51.114;6.542;2022-11-21T16:19:45;10.37;;;3.13;;
1404;SDS011;697;51.114;6.542;2022-11-21T16:22:13;9.33;;;3.30;;